sensor_id;sensor_type;location;lat;lon;timestamp;P1;durP1;ratioP1;P2;durP2;ratioP2
17844;SDS011;9047;53.486;10.218;2022-11-20T00:01:56;9.80;;;5.72;;
17844;SDS011;9047;53.486;10.218;2022-11-20T00:04:25;9.32;;;5.35;;
17844;SDS011;9047;53.486;10.218;2022-11-20T00:06:53;9.88;;;5.50;;
17844;SDS011;9047;53.486;10.218;2022-11-20T00:09:21;9.48;;;5.75;;
17844;SDS011;9047;53.486;10.218;2022-11-20T00:11:52;11.20;;;5.93;;
17844;SDS011;9047;53.486;10.218;2022-11-20T00:14:21;11.68;;;6.20;;
17844;SDS011;9047;53.486;10.218;2022-11-20T00:16:50;11.05;;;5.88;;
17844;SDS011;9047;53.486;10.218;2022-11-20T00:19:19;8.98;;;5.65;;
17844;SDS011;9047;53.486;10.218;2022-11-20T00:21:47;9.98;;;5.68;;
17844;SDS011;9047;53.486;10.218;2022-11-20T00:24:19;9.63;;;5.90;;
17844;SDS011;9047;53.486;10.218;2022-11-20T00:26:47;12.02;;;5.80;;
17844;SDS011;9047;53.486;10.218;2022-11-20T00:29:15;9.55;;;5.35;;
17844;SDS011;9047;53.486;10.218;2022-11-20T00:31:43;10.27;;;5.43;;
17844;SDS011;9047;53.486;10.218;2022-11-20T00:34:14;11.50;;;5.65;;
17844;SDS011;9047;53.486;10.218;2022-11-20T00:36:41;12.85;;;5.68;;
17844;SDS011;9047;53.486;10.218;2022-11-20T00:39:10;8.45;;;5.40;;
17844;SDS011;9047;53.486;10.218;2022-11-20T00:41:40;9.35;;;5.00;;
17844;SDS011;9047;53.486;10.218;2022-11-20T00:44:22;10.40;;;5.35;;
17844;SDS011;9047;53.486;10.218;2022-11-20T00:46:58;13.50;;;5.43;;
17844;SDS011;9047;53.486;10.218;2022-11-20T00:49:28;10.43;;;4.90;;
17844;SDS011;9047;53.486;10.218;2022-11-20T00:51:58;8.27;;;4.95;;
17844;SDS011;9047;53.486;10.218;2022-11-20T00:54:26;7.57;;;5.00;;
17844;SDS011;9047;53.486;10.218;2022-11-20T00:56:56;9.73;;;5.28;;
17844;SDS011;9047;53.486;10.218;2022-11-20T00:59:24;7.03;;;4.80;;
17844;SDS011;9047;53.486;10.218;2022-11-20T01:01:52;8.63;;;5.40;;
17844;SDS011;9047;53.486;10.218;2022-11-20T01:04:19;8.27;;;4.97;;
17844;SDS011;9047;53.486;10.218;2022-11-20T01:06:50;7.85;;;4.95;;
17844;SDS011;9047;53.486;10.218;2022-11-20T01:09:17;12.93;;;5.75;;
17844;SDS011;9047;53.486;10.218;2022-11-20T01:11:46;8.80;;;5.20;;
17844;SDS011;9047;53.486;10.218;2022-11-20T01:14:14;10.15;;;5.35;;
17844;SDS011;9047;53.486;10.218;2022-11-20T01:16:46;7.93;;;4.95;;
17844;SDS011;9047;53.486;10.218;2022-11-20T01:19:17;8.57;;;5.32;;
17844;SDS011;9047;53.486;10.218;2022-11-20T01:21:52;10.15;;;5.18;;
17844;SDS011;9047;53.486;10.218;2022-11-20T01:24:20;10.07;;;5.40;;
17844;SDS011;9047;53.486;10.218;2022-11-20T01:26:51;8.20;;;5.22;;
17844;SDS011;9047;53.486;10.218;2022-11-20T01:29:19;8.00;;;4.90;;
17844;SDS011;9047;53.486;10.218;2022-11-20T01:31:51;8.63;;;4.95;;
17844;SDS011;9047;53.486;10.218;2022-11-20T01:34:21;7.28;;;4.47;;
17844;SDS011;9047;53.486;10.218;2022-11-20T01:36:53;6.80;;;4.78;;
17844;SDS011;9047;53.486;10.218;2022-11-20T01:39:22;10.25;;;5.10;;
17844;SDS011;9047;53.486;10.218;2022-11-20T01:42:04;6.88;;;4.75;;
17844;SDS011;9047;53.486;10.218;2022-11-20T01:44:52;7.95;;;4.70;;
17844;SDS011;9047;53.486;10.218;2022-11-20T01:47:27;7.65;;;4.55;;
17844;SDS011;9047;53.486;10.218;2022-11-20T01:50:05;8.20;;;4.80;;
17844;SDS011;9047;53.486;10.218;2022-11-20T01:52:39;7.18;;;4.80;;
17844;SDS011;9047;53.486;10.218;2022-11-20T01:55:12;7.07;;;4.60;;
17844;SDS011;9047;53.486;10.218;2022-11-20T01:57:44;7.63;;;4.68;;
17844;SDS011;9047;53.486;10.218;2022-11-20T02:00:15;8.35;;;4.63;;
17844;SDS011;9047;53.486;10.218;2022-11-20T02:02:54;8.63;;;4.50;;
17844;SDS011;9047;53.486;10.218;2022-11-20T02:05:27;9.30;;;5.00;;
17844;SDS011;9047;53.486;10.218;2022-11-20T02:08:03;7.72;;;4.80;;
17844;SDS011;9047;53.486;10.218;2022-11-20T02:10:40;8.00;;;4.65;;
17844;SDS011;9047;53.486;10.218;2022-11-20T02:13:07;7.05;;;4.43;;
17844;SDS011;9047;53.486;10.218;2022-11-20T02:15:54;7.93;;;4.65;;
17844;SDS011;9047;53.486;10.218;2022-11-20T02:18:22;7.63;;;4.60;;
17844;SDS011;9047;53.486;10.218;2022-11-20T02:20:52;6.35;;;4.40;;
17844;SDS011;9047;53.486;10.218;2022-11-20T02:23:28;7.68;;;4.75;;
17844;SDS011;9047;53.486;10.218;2022-11-20T02:26:02;8.85;;;5.15;;
17844;SDS011;9047;53.486;10.218;2022-11-20T02:28:34;6.45;;;4.28;;
17844;SDS011;9047;53.486;10.218;2022-11-20T02:31:02;7.50;;;4.60;;
17844;SDS011;9047;53.486;10.218;2022-11-20T02:33:30;7.30;;;4.63;;
17844;SDS011;9047;53.486;10.218;2022-11-20T02:35:59;7.05;;;4.35;;
17844;SDS011;9047;53.486;10.218;2022-11-20T02:38:26;10.52;;;4.80;;
17844;SDS011;9047;53.486;10.218;2022-11-20T02:40:56;7.50;;;4.72;;
17844;SDS011;9047;53.486;10.218;2022-11-20T02:43:29;10.27;;;5.22;;
17844;SDS011;9047;53.486;10.218;2022-11-20T02:45:56;9.13;;;4.90;;
17844;SDS011;9047;53.486;10.218;2022-11-20T02:48:23;9.50;;;5.30;;
17844;SDS011;9047;53.486;10.218;2022-11-20T02:50:52;9.00;;;5.25;;
17844;SDS011;9047;53.486;10.218;2022-11-20T02:53:19;7.95;;;4.88;;
17844;SDS011;9047;53.486;10.218;2022-11-20T02:55:47;7.47;;;4.68;;
17844;SDS011;9047;53.486;10.218;2022-11-20T02:58:15;7.50;;;5.15;;
17844;SDS011;9047;53.486;10.218;2022-11-20T03:00:47;8.88;;;5.07;;
17844;SDS011;9047;53.486;10.218;2022-11-20T03:03:15;7.68;;;4.95;;
17844;SDS011;9047;53.486;10.218;2022-11-20T03:05:43;8.77;;;5.10;;
17844;SDS011;9047;53.486;10.218;2022-11-20T03:08:26;9.45;;;5.25;;
17844;SDS011;9047;53.486;10.218;2022-11-20T03:10:54;9.35;;;5.18;;
17844;SDS011;9047;53.486;10.218;2022-11-20T03:13:21;9.10;;;5.30;;
17844;SDS011;9047;53.486;10.218;2022-11-20T03:15:55;8.98;;;5.47;;
17844;SDS011;9047;53.486;10.218;2022-11-20T03:18:22;7.45;;;5.30;;
17844;SDS011;9047;53.486;10.218;2022-11-20T03:21:06;9.45;;;5.35;;
17844;SDS011;9047;53.486;10.218;2022-11-20T03:23:36;8.35;;;5.35;;
17844;SDS011;9047;53.486;10.218;2022-11-20T03:26:10;8.80;;;5.47;;
17844;SDS011;9047;53.486;10.218;2022-11-20T03:28:41;8.05;;;5.50;;
17844;SDS011;9047;53.486;10.218;2022-11-20T03:31:11;7.65;;;5.15;;
17844;SDS011;9047;53.486;10.218;2022-11-20T03:33:41;9.63;;;5.10;;
17844;SDS011;9047;53.486;10.218;2022-11-20T03:36:10;12.23;;;5.13;;
17844;SDS011;9047;53.486;10.218;2022-11-20T03:38:40;7.82;;;5.47;;
17844;SDS011;9047;53.486;10.218;2022-11-20T03:41:09;9.27;;;5.32;;
17844;SDS011;9047;53.486;10.218;2022-11-20T03:43:39;8.07;;;5.28;;
17844;SDS011;9047;53.486;10.218;2022-11-20T03:46:07;9.18;;;5.30;;
17844;SDS011;9047;53.486;10.218;2022-11-20T03:48:37;7.22;;;4.78;;
17844;SDS011;9047;53.486;10.218;2022-11-20T03:51:08;10.02;;;5.20;;
17844;SDS011;9047;53.486;10.218;2022-11-20T03:53:38;10.55;;;5.20;;
17844;SDS011;9047;53.486;10.218;2022-11-20T03:56:08;8.27;;;5.20;;
17844;SDS011;9047;53.486;10.218;2022-11-20T03:58:36;8.20;;;5.40;;
17844;SDS011;9047;53.486;10.218;2022-11-20T04:01:07;9.38;;;5.03;;
17844;SDS011;9047;53.486;10.218;2022-11-20T04:03:34;9.90;;;5.60;;
17844;SDS011;9047;53.486;10.218;2022-11-20T04:06:10;8.02;;;5.70;;
17844;SDS011;9047;53.486;10.218;2022-11-20T04:08:38;8.40;;;5.45;;
17844;SDS011;9047;53.486;10.218;2022-11-20T04:11:11;8.13;;;5.07;;
17844;SDS011;9047;53.486;10.218;2022-11-20T04:13:42;9.13;;;5.38;;
17844;SDS011;9047;53.486;10.218;2022-11-20T04:16:13;9.73;;;5.82;;
17844;SDS011;9047;53.486;10.218;2022-11-20T04:18:43;8.07;;;5.82;;
17844;SDS011;9047;53.486;10.218;2022-11-20T04:21:11;7.82;;;5.20;;
17844;SDS011;9047;53.486;10.218;2022-11-20T04:23:39;8.57;;;5.20;;
17844;SDS011;9047;53.486;10.218;2022-11-20T04:26:07;8.52;;;5.25;;
17844;SDS011;9047;53.486;10.218;2022-11-20T04:28:36;9.52;;;5.10;;
17844;SDS011;9047;53.486;10.218;2022-11-20T04:31:04;8.80;;;5.65;;
17844;SDS011;9047;53.486;10.218;2022-11-20T04:33:33;8.80;;;6.10;;
17844;SDS011;9047;53.486;10.218;2022-11-20T04:36:04;10.02;;;5.50;;
17844;SDS011;9047;53.486;10.218;2022-11-20T04:38:38;10.07;;;6.05;;
17844;SDS011;9047;53.486;10.218;2022-11-20T04:41:07;9.30;;;5.53;;
17844;SDS011;9047;53.486;10.218;2022-11-20T04:43:40;11.35;;;5.68;;
17844;SDS011;9047;53.486;10.218;2022-11-20T04:46:12;10.48;;;5.72;;
17844;SDS011;9047;53.486;10.218;2022-11-20T04:48:40;9.13;;;6.35;;
17844;SDS011;9047;53.486;10.218;2022-11-20T04:51:12;9.98;;;5.82;;
17844;SDS011;9047;53.486;10.218;2022-11-20T04:53:39;11.10;;;6.03;;
17844;SDS011;9047;53.486;10.218;2022-11-20T04:56:06;8.50;;;5.72;;
17844;SDS011;9047;53.486;10.218;2022-11-20T04:58:46;11.20;;;6.28;;
17844;SDS011;9047;53.486;10.218;2022-11-20T05:01:15;7.68;;;5.40;;
17844;SDS011;9047;53.486;10.218;2022-11-20T05:03:46;11.07;;;5.75;;
17844;SDS011;9047;53.486;10.218;2022-11-20T05:06:20;10.18;;;6.00;;
17844;SDS011;9047;53.486;10.218;2022-11-20T05:08:49;7.75;;;5.30;;
17844;SDS011;9047;53.486;10.218;2022-11-20T05:11:25;7.78;;;5.47;;
17844;SDS011;9047;53.486;10.218;2022-11-20T05:13:58;9.18;;;5.82;;
17844;SDS011;9047;53.486;10.218;2022-11-20T05:16:29;9.02;;;5.28;;
17844;SDS011;9047;53.486;10.218;2022-11-20T05:19:00;7.60;;;5.00;;
17844;SDS011;9047;53.486;10.218;2022-11-20T05:21:34;9.90;;;5.50;;
17844;SDS011;9047;53.486;10.218;2022-11-20T05:24:06;9.88;;;5.95;;
17844;SDS011;9047;53.486;10.218;2022-11-20T05:26:34;8.60;;;5.90;;
17844;SDS011;9047;53.486;10.218;2022-11-20T05:29:03;9.43;;;5.93;;
17844;SDS011;9047;53.486;10.218;2022-11-20T05:31:33;10.98;;;6.22;;
17844;SDS011;9047;53.486;10.218;2022-11-20T05:34:02;9.80;;;5.88;;
17844;SDS011;9047;53.486;10.218;2022-11-20T05:36:32;8.30;;;5.40;;
17844;SDS011;9047;53.486;10.218;2022-11-20T05:39:00;7.53;;;5.60;;
17844;SDS011;9047;53.486;10.218;2022-11-20T05:41:38;8.88;;;5.40;;
17844;SDS011;9047;53.486;10.218;2022-11-20T05:44:06;8.52;;;5.82;;
17844;SDS011;9047;53.486;10.218;2022-11-20T05:46:37;9.23;;;5.68;;
17844;SDS011;9047;53.486;10.218;2022-11-20T05:49:06;10.77;;;5.50;;
17844;SDS011;9047;53.486;10.218;2022-11-20T05:51:39;8.60;;;5.78;;
17844;SDS011;9047;53.486;10.218;2022-11-20T05:54:10;8.68;;;5.55;;
17844;SDS011;9047;53.486;10.218;2022-11-20T05:56:38;10.07;;;5.80;;
17844;SDS011;9047;53.486;10.218;2022-11-20T05:59:05;10.05;;;5.60;;
17844;SDS011;9047;53.486;10.218;2022-11-20T06:01:35;8.98;;;5.60;;
17844;SDS011;9047;53.486;10.218;2022-11-20T06:04:08;9.95;;;5.82;;
17844;SDS011;9047;53.486;10.218;2022-11-20T06:06:37;8.88;;;5.35;;
17844;SDS011;9047;53.486;10.218;2022-11-20T06:09:10;9.73;;;5.35;;
17844;SDS011;9047;53.486;10.218;2022-11-20T06:11:38;10.13;;;5.28;;
17844;SDS011;9047;53.486;10.218;2022-11-20T06:14:06;8.13;;;5.15;;
17844;SDS011;9047;53.486;10.218;2022-11-20T06:16:33;7.80;;;5.35;;
17844;SDS011;9047;53.486;10.218;2022-11-20T06:19:00;9.50;;;5.63;;
17844;SDS011;9047;53.486;10.218;2022-11-20T06:21:28;9.23;;;5.78;;
17844;SDS011;9047;53.486;10.218;2022-11-20T06:23:57;7.63;;;5.45;;
17844;SDS011;9047;53.486;10.218;2022-11-20T06:26:27;11.77;;;5.25;;
17844;SDS011;9047;53.486;10.218;2022-11-20T06:28:54;7.80;;;5.05;;
17844;SDS011;9047;53.486;10.218;2022-11-20T06:31:25;8.02;;;5.43;;
17844;SDS011;9047;53.486;10.218;2022-11-20T06:33:53;9.70;;;5.43;;
17844;SDS011;9047;53.486;10.218;2022-11-20T06:36:22;9.00;;;5.10;;
17844;SDS011;9047;53.486;10.218;2022-11-20T06:38:49;9.38;;;5.47;;
17844;SDS011;9047;53.486;10.218;2022-11-20T06:41:19;7.90;;;5.60;;
17844;SDS011;9047;53.486;10.218;2022-11-20T06:43:48;9.32;;;5.47;;
17844;SDS011;9047;53.486;10.218;2022-11-20T06:46:16;10.00;;;5.63;;
17844;SDS011;9047;53.486;10.218;2022-11-20T06:48:46;8.38;;;5.60;;
17844;SDS011;9047;53.486;10.218;2022-11-20T06:51:15;9.63;;;5.68;;
17844;SDS011;9047;53.486;10.218;2022-11-20T06:53:43;8.90;;;5.80;;
17844;SDS011;9047;53.486;10.218;2022-11-20T06:56:11;10.57;;;6.30;;
17844;SDS011;9047;53.486;10.218;2022-11-20T06:58:39;9.07;;;5.70;;
17844;SDS011;9047;53.486;10.218;2022-11-20T07:01:07;10.65;;;5.93;;
17844;SDS011;9047;53.486;10.218;2022-11-20T07:03:38;8.57;;;5.88;;
17844;SDS011;9047;53.486;10.218;2022-11-20T07:06:06;10.73;;;6.20;;
17844;SDS011;9047;53.486;10.218;2022-11-20T07:08:34;10.02;;;5.72;;
17844;SDS011;9047;53.486;10.218;2022-11-20T07:11:04;8.70;;;6.25;;
17844;SDS011;9047;53.486;10.218;2022-11-20T07:13:32;8.18;;;5.13;;
17844;SDS011;9047;53.486;10.218;2022-11-20T07:16:04;7.82;;;5.38;;
17844;SDS011;9047;53.486;10.218;2022-11-20T07:18:34;10.18;;;5.90;;
17844;SDS011;9047;53.486;10.218;2022-11-20T07:21:04;10.63;;;5.85;;
17844;SDS011;9047;53.486;10.218;2022-11-20T07:23:37;10.25;;;5.90;;
17844;SDS011;9047;53.486;10.218;2022-11-20T07:26:05;8.77;;;5.70;;
17844;SDS011;9047;53.486;10.218;2022-11-20T07:28:43;9.60;;;5.53;;
17844;SDS011;9047;53.486;10.218;2022-11-20T07:31:14;8.25;;;5.38;;
17844;SDS011;9047;53.486;10.218;2022-11-20T07:33:42;8.32;;;5.25;;
17844;SDS011;9047;53.486;10.218;2022-11-20T07:36:18;10.73;;;5.88;;
17844;SDS011;9047;53.486;10.218;2022-11-20T07:38:45;8.07;;;5.63;;
17844;SDS011;9047;53.486;10.218;2022-11-20T07:41:13;9.88;;;6.20;;
17844;SDS011;9047;53.486;10.218;2022-11-20T07:43:53;9.18;;;5.63;;
17844;SDS011;9047;53.486;10.218;2022-11-20T07:46:22;9.60;;;6.22;;
17844;SDS011;9047;53.486;10.218;2022-11-20T07:49:04;8.82;;;5.50;;
17844;SDS011;9047;53.486;10.218;2022-11-20T07:51:39;10.07;;;6.32;;
17844;SDS011;9047;53.486;10.218;2022-11-20T07:54:18;8.77;;;5.88;;
17844;SDS011;9047;53.486;10.218;2022-11-20T07:56:45;9.85;;;5.72;;
17844;SDS011;9047;53.486;10.218;2022-11-20T07:59:12;11.15;;;6.20;;
17844;SDS011;9047;53.486;10.218;2022-11-20T08:01:57;11.27;;;6.93;;
17844;SDS011;9047;53.486;10.218;2022-11-20T08:04:31;11.85;;;6.57;;
17844;SDS011;9047;53.486;10.218;2022-11-20T08:06:58;9.88;;;6.43;;
17844;SDS011;9047;53.486;10.218;2022-11-20T08:09:26;9.80;;;6.53;;
17844;SDS011;9047;53.486;10.218;2022-11-20T08:11:55;12.02;;;6.90;;
17844;SDS011;9047;53.486;10.218;2022-11-20T08:17:51;10.43;;;6.30;;
17844;SDS011;9047;53.486;10.218;2022-11-20T08:23:14;14.75;;;9.13;;
17844;SDS011;9047;53.486;10.218;2022-11-20T08:25:42;13.70;;;8.43;;
17844;SDS011;9047;53.486;10.218;2022-11-20T08:28:10;14.27;;;9.93;;
17844;SDS011;9047;53.486;10.218;2022-11-20T08:30:41;13.80;;;9.98;;
17844;SDS011;9047;53.486;10.218;2022-11-20T08:33:17;16.33;;;9.75;;
17844;SDS011;9047;53.486;10.218;2022-11-20T08:35:45;15.35;;;9.63;;
17844;SDS011;9047;53.486;10.218;2022-11-20T08:38:28;14.02;;;8.70;;
17844;SDS011;9047;53.486;10.218;2022-11-20T08:40:56;13.75;;;8.80;;
17844;SDS011;9047;53.486;10.218;2022-11-20T08:43:40;19.40;;;9.93;;
17844;SDS011;9047;53.486;10.218;2022-11-20T08:46:09;13.30;;;8.82;;
17844;SDS011;9047;53.486;10.218;2022-11-20T08:48:43;14.90;;;8.85;;
17844;SDS011;9047;53.486;10.218;2022-11-20T08:51:12;12.30;;;8.27;;
17844;SDS011;9047;53.486;10.218;2022-11-20T08:53:41;12.55;;;7.75;;
17844;SDS011;9047;53.486;10.218;2022-11-20T08:56:10;13.32;;;8.20;;
17844;SDS011;9047;53.486;10.218;2022-11-20T08:58:39;11.93;;;8.15;;
17844;SDS011;9047;53.486;10.218;2022-11-20T09:01:07;16.23;;;8.48;;
17844;SDS011;9047;53.486;10.218;2022-11-20T09:03:36;13.35;;;8.45;;
17844;SDS011;9047;53.486;10.218;2022-11-20T09:06:23;12.00;;;7.95;;
17844;SDS011;9047;53.486;10.218;2022-11-20T09:09:02;12.88;;;8.45;;
17844;SDS011;9047;53.486;10.218;2022-11-20T09:11:32;11.88;;;7.80;;
17844;SDS011;9047;53.486;10.218;2022-11-20T09:14:02;8.77;;;6.63;;
17844;SDS011;9047;53.486;10.218;2022-11-20T09:16:39;9.60;;;5.78;;
17844;SDS011;9047;53.486;10.218;2022-11-20T09:19:09;6.72;;;4.68;;
17844;SDS011;9047;53.486;10.218;2022-11-20T09:21:37;7.70;;;4.60;;
17844;SDS011;9047;53.486;10.218;2022-11-20T09:24:07;7.95;;;4.93;;
17844;SDS011;9047;53.486;10.218;2022-11-20T09:26:36;6.45;;;4.10;;
17844;SDS011;9047;53.486;10.218;2022-11-20T09:29:03;5.70;;;3.95;;
17844;SDS011;9047;53.486;10.218;2022-11-20T09:31:31;4.60;;;3.60;;
17844;SDS011;9047;53.486;10.218;2022-11-20T09:33:58;4.28;;;3.40;;
17844;SDS011;9047;53.486;10.218;2022-11-20T09:36:28;5.05;;;3.20;;
17844;SDS011;9047;53.486;10.218;2022-11-20T09:38:56;3.33;;;3.00;;
17844;SDS011;9047;53.486;10.218;2022-11-20T09:41:43;3.08;;;2.60;;
17844;SDS011;9047;53.486;10.218;2022-11-20T09:44:30;3.13;;;2.50;;
17844;SDS011;9047;53.486;10.218;2022-11-20T09:47:08;3.15;;;2.70;;
17844;SDS011;9047;53.486;10.218;2022-11-20T09:49:45;3.65;;;2.72;;
17844;SDS011;9047;53.486;10.218;2022-11-20T09:52:29;5.07;;;3.05;;
17844;SDS011;9047;53.486;10.218;2022-11-20T09:55:03;4.28;;;3.10;;
17844;SDS011;9047;53.486;10.218;2022-11-20T09:57:41;3.67;;;2.80;;
17844;SDS011;9047;53.486;10.218;2022-11-20T10:00:12;3.90;;;2.70;;
17844;SDS011;9047;53.486;10.218;2022-11-20T10:02:42;4.88;;;2.85;;
17844;SDS011;9047;53.486;10.218;2022-11-20T10:05:17;3.40;;;2.88;;
17844;SDS011;9047;53.486;10.218;2022-11-20T10:07:50;5.72;;;3.20;;
17844;SDS011;9047;53.486;10.218;2022-11-20T10:10:25;3.60;;;2.80;;
17844;SDS011;9047;53.486;10.218;2022-11-20T10:13:03;3.95;;;2.88;;
17844;SDS011;9047;53.486;10.218;2022-11-20T10:15:45;3.70;;;3.10;;
17844;SDS011;9047;53.486;10.218;2022-11-20T10:18:23;3.45;;;2.65;;
17844;SDS011;9047;53.486;10.218;2022-11-20T10:21:03;4.32;;;2.75;;
17844;SDS011;9047;53.486;10.218;2022-11-20T10:23:56;3.92;;;2.83;;
17844;SDS011;9047;53.486;10.218;2022-11-20T10:26:36;3.70;;;3.00;;
17844;SDS011;9047;53.486;10.218;2022-11-20T10:29:11;4.90;;;3.13;;
17844;SDS011;9047;53.486;10.218;2022-11-20T10:31:41;3.97;;;3.20;;
17844;SDS011;9047;53.486;10.218;2022-11-20T10:34:15;4.15;;;3.30;;
17844;SDS011;9047;53.486;10.218;2022-11-20T10:36:49;4.00;;;3.13;;
17844;SDS011;9047;53.486;10.218;2022-11-20T10:39:24;3.95;;;3.25;;
17844;SDS011;9047;53.486;10.218;2022-11-20T10:41:58;5.07;;;3.67;;
17844;SDS011;9047;53.486;10.218;2022-11-20T10:44:27;4.50;;;3.40;;
17844;SDS011;9047;53.486;10.218;2022-11-20T10:47:14;3.83;;;3.03;;
17844;SDS011;9047;53.486;10.218;2022-11-20T10:49:42;4.32;;;3.10;;
17844;SDS011;9047;53.486;10.218;2022-11-20T10:52:12;3.85;;;3.03;;
17844;SDS011;9047;53.486;10.218;2022-11-20T10:54:50;3.90;;;3.20;;
17844;SDS011;9047;53.486;10.218;2022-11-20T10:57:25;4.28;;;3.40;;
17844;SDS011;9047;53.486;10.218;2022-11-20T11:00:05;4.18;;;3.10;;
17844;SDS011;9047;53.486;10.218;2022-11-20T11:02:34;4.15;;;3.17;;
17844;SDS011;9047;53.486;10.218;2022-11-20T11:05:24;4.10;;;3.10;;
17844;SDS011;9047;53.486;10.218;2022-11-20T11:07:58;3.85;;;3.10;;
17844;SDS011;9047;53.486;10.218;2022-11-20T11:10:32;4.72;;;3.50;;
17844;SDS011;9047;53.486;10.218;2022-11-20T11:13:18;5.95;;;3.38;;
17844;SDS011;9047;53.486;10.218;2022-11-20T11:15:47;4.57;;;3.60;;
17844;SDS011;9047;53.486;10.218;2022-11-20T11:18:23;4.97;;;3.13;;
17844;SDS011;9047;53.486;10.218;2022-11-20T11:20:54;4.50;;;3.30;;
17844;SDS011;9047;53.486;10.218;2022-11-20T11:23:29;4.75;;;3.65;;
17844;SDS011;9047;53.486;10.218;2022-11-20T11:26:05;4.10;;;3.50;;
17844;SDS011;9047;53.486;10.218;2022-11-20T11:28:52;4.13;;;3.30;;
17844;SDS011;9047;53.486;10.218;2022-11-20T11:31:33;3.95;;;3.30;;
17844;SDS011;9047;53.486;10.218;2022-11-20T11:34:05;4.22;;;2.92;;
17844;SDS011;9047;53.486;10.218;2022-11-20T11:36:36;3.53;;;2.97;;
17844;SDS011;9047;53.486;10.218;2022-11-20T11:39:10;3.72;;;3.00;;
17844;SDS011;9047;53.486;10.218;2022-11-20T11:41:47;3.65;;;3.15;;
17844;SDS011;9047;53.486;10.218;2022-11-20T11:44:16;4.35;;;3.15;;
17844;SDS011;9047;53.486;10.218;2022-11-20T11:47:04;5.15;;;3.65;;
17844;SDS011;9047;53.486;10.218;2022-11-20T11:49:42;4.60;;;3.70;;
17844;SDS011;9047;53.486;10.218;2022-11-20T11:52:16;4.00;;;3.03;;
17844;SDS011;9047;53.486;10.218;2022-11-20T11:54:53;4.47;;;3.30;;
17844;SDS011;9047;53.486;10.218;2022-11-20T11:57:29;5.38;;;3.40;;
17844;SDS011;9047;53.486;10.218;2022-11-20T12:00:06;5.30;;;3.40;;
17844;SDS011;9047;53.486;10.218;2022-11-20T12:02:49;5.40;;;3.65;;
17844;SDS011;9047;53.486;10.218;2022-11-20T12:05:29;4.05;;;3.00;;
17844;SDS011;9047;53.486;10.218;2022-11-20T12:08:04;4.53;;;2.95;;
17844;SDS011;9047;53.486;10.218;2022-11-20T12:10:41;7.68;;;3.90;;
17844;SDS011;9047;53.486;10.218;2022-11-20T12:13:20;6.47;;;3.58;;
17844;SDS011;9047;53.486;10.218;2022-11-20T12:15:54;5.32;;;3.72;;
17844;SDS011;9047;53.486;10.218;2022-11-20T12:18:23;5.10;;;3.20;;
17844;SDS011;9047;53.486;10.218;2022-11-20T12:20:54;5.10;;;3.20;;
17844;SDS011;9047;53.486;10.218;2022-11-20T12:23:33;4.20;;;3.10;;
17844;SDS011;9047;53.486;10.218;2022-11-20T12:26:08;4.68;;;3.00;;
17844;SDS011;9047;53.486;10.218;2022-11-20T12:28:54;5.10;;;3.00;;
17844;SDS011;9047;53.486;10.218;2022-11-20T12:31:40;3.47;;;2.80;;
17844;SDS011;9047;53.486;10.218;2022-11-20T12:34:23;3.63;;;2.70;;
17844;SDS011;9047;53.486;10.218;2022-11-20T12:37:02;2.78;;;2.15;;
17844;SDS011;9047;53.486;10.218;2022-11-20T12:39:40;2.65;;;2.20;;
17844;SDS011;9047;53.486;10.218;2022-11-20T12:45:41;2.60;;;2.15;;
17844;SDS011;9047;53.486;10.218;2022-11-20T12:48:29;3.47;;;2.40;;
17844;SDS011;9047;53.486;10.218;2022-11-20T12:51:17;2.85;;;2.20;;
17844;SDS011;9047;53.486;10.218;2022-11-20T12:54:19;2.35;;;2.05;;
17844;SDS011;9047;53.486;10.218;2022-11-20T12:57:05;4.18;;;2.08;;
17844;SDS011;9047;53.486;10.218;2022-11-20T12:59:55;4.30;;;2.70;;
17844;SDS011;9047;53.486;10.218;2022-11-20T13:02:42;11.38;;;5.10;;
17844;SDS011;9047;53.486;10.218;2022-11-20T13:05:26;12.23;;;5.93;;
17844;SDS011;9047;53.486;10.218;2022-11-20T13:08:02;4.72;;;2.60;;
17844;SDS011;9047;53.486;10.218;2022-11-20T13:10:31;6.90;;;4.00;;
17844;SDS011;9047;53.486;10.218;2022-11-20T13:13:03;4.13;;;2.92;;
17844;SDS011;9047;53.486;10.218;2022-11-20T13:15:47;16.88;;;8.07;;
17844;SDS011;9047;53.486;10.218;2022-11-20T13:18:30;4.05;;;3.05;;
17844;SDS011;9047;53.486;10.218;2022-11-20T13:21:14;3.17;;;2.50;;
17844;SDS011;9047;53.486;10.218;2022-11-20T13:23:42;2.70;;;2.33;;
17844;SDS011;9047;53.486;10.218;2022-11-20T13:26:17;3.50;;;2.35;;
17844;SDS011;9047;53.486;10.218;2022-11-20T13:28:48;7.32;;;2.50;;
17844;SDS011;9047;53.486;10.218;2022-11-20T13:31:29;2.83;;;2.30;;
17844;SDS011;9047;53.486;10.218;2022-11-20T13:34:01;2.97;;;2.30;;
17844;SDS011;9047;53.486;10.218;2022-11-20T13:36:31;3.65;;;2.72;;
17844;SDS011;9047;53.486;10.218;2022-11-20T13:39:05;2.67;;;2.35;;
17844;SDS011;9047;53.486;10.218;2022-11-20T13:41:33;3.00;;;2.35;;
17844;SDS011;9047;53.486;10.218;2022-11-20T13:44:10;4.38;;;2.78;;
17844;SDS011;9047;53.486;10.218;2022-11-20T13:46:43;3.60;;;2.40;;
17844;SDS011;9047;53.486;10.218;2022-11-20T13:49:18;2.90;;;2.50;;
17844;SDS011;9047;53.486;10.218;2022-11-20T13:51:50;2.75;;;2.47;;
17844;SDS011;9047;53.486;10.218;2022-11-20T13:54:30;3.92;;;2.88;;
17844;SDS011;9047;53.486;10.218;2022-11-20T13:57:21;3.00;;;2.40;;
17844;SDS011;9047;53.486;10.218;2022-11-20T14:00:07;3.25;;;2.75;;
17844;SDS011;9047;53.486;10.218;2022-11-20T14:02:38;4.57;;;2.40;;
17844;SDS011;9047;53.486;10.218;2022-11-20T14:05:15;3.00;;;2.42;;
17844;SDS011;9047;53.486;10.218;2022-11-20T14:07:52;2.80;;;2.35;;
17844;SDS011;9047;53.486;10.218;2022-11-20T14:10:22;4.60;;;2.40;;
17844;SDS011;9047;53.486;10.218;2022-11-20T14:12:51;3.28;;;2.55;;
17844;SDS011;9047;53.486;10.218;2022-11-20T14:15:25;3.42;;;2.58;;
17844;SDS011;9047;53.486;10.218;2022-11-20T14:17:54;3.30;;;2.75;;
17844;SDS011;9047;53.486;10.218;2022-11-20T14:20:26;3.55;;;2.55;;
17844;SDS011;9047;53.486;10.218;2022-11-20T14:22:57;3.42;;;2.80;;
17844;SDS011;9047;53.486;10.218;2022-11-20T14:25:24;3.72;;;2.83;;
17844;SDS011;9047;53.486;10.218;2022-11-20T14:27:56;4.15;;;3.10;;
17844;SDS011;9047;53.486;10.218;2022-11-20T14:30:27;4.10;;;2.90;;
17844;SDS011;9047;53.486;10.218;2022-11-20T14:33:12;4.05;;;2.90;;
17844;SDS011;9047;53.486;10.218;2022-11-20T14:35:57;3.53;;;2.78;;
17844;SDS011;9047;53.486;10.218;2022-11-20T14:38:26;5.47;;;2.78;;
17844;SDS011;9047;53.486;10.218;2022-11-20T14:41:05;3.55;;;2.85;;
17844;SDS011;9047;53.486;10.218;2022-11-20T14:43:49;4.38;;;3.28;;
17844;SDS011;9047;53.486;10.218;2022-11-20T14:46:21;6.25;;;3.95;;
17844;SDS011;9047;53.486;10.218;2022-11-20T14:48:53;6.70;;;4.15;;
17844;SDS011;9047;53.486;10.218;2022-11-20T14:51:31;5.43;;;3.88;;
17844;SDS011;9047;53.486;10.218;2022-11-20T14:54:10;5.97;;;3.60;;
17844;SDS011;9047;53.486;10.218;2022-11-20T14:56:39;4.03;;;2.97;;
17844;SDS011;9047;53.486;10.218;2022-11-20T14:59:22;4.78;;;3.40;;
17844;SDS011;9047;53.486;10.218;2022-11-20T15:01:54;5.70;;;3.70;;
17844;SDS011;9047;53.486;10.218;2022-11-20T15:04:43;5.15;;;3.42;;
17844;SDS011;9047;53.486;10.218;2022-11-20T15:09:59;5.32;;;3.60;;
17844;SDS011;9047;53.486;10.218;2022-11-20T15:12:30;5.90;;;3.60;;
17844;SDS011;9047;53.486;10.218;2022-11-20T15:14:58;5.63;;;3.83;;
17844;SDS011;9047;53.486;10.218;2022-11-20T15:17:33;6.30;;;3.47;;
17844;SDS011;9047;53.486;10.218;2022-11-20T15:20:04;5.93;;;4.20;;
17844;SDS011;9047;53.486;10.218;2022-11-20T15:22:39;5.13;;;3.75;;
17844;SDS011;9047;53.486;10.218;2022-11-20T15:25:11;4.72;;;3.88;;
17844;SDS011;9047;53.486;10.218;2022-11-20T15:27:39;5.53;;;3.95;;
17844;SDS011;9047;53.486;10.218;2022-11-20T15:30:12;7.10;;;4.70;;
17844;SDS011;9047;53.486;10.218;2022-11-20T15:32:42;6.32;;;4.35;;